Terminal Aerodrome Forecast
Issued by NWS

Home | Current Version | Previous Version | Text Only | Print | Product List | Glossary On
Versions: 1 2 3 4 5 6 7 8 9 10 11 12 13 14 15 16 17 18 19 20 21 22 23 24 25 26
000
FTUS46 KLOX 190300 AAA
TAFPRB
TAF AMD
KPRB 190310Z 1903/1924 VRB04KT P6SM SCT020
     FM190400 VRB03KT P6SM BKN010
     FM191000 VRB03KT 1/2SM FG OVC002
     FM191600 VRB03KT 3SM BR BKN008
     FM191900 18006KT P6SM BKN020 PROB30 1920/1924 5SM -SHRA BKN015=

USA.gov is the U.S. government's official web portal to all federal, state and local government web resources and services.